Time;durP1;ratioP1;P1;durP2;ratioP2;P2;SDS_P1;SDS_P2;PMS_P1;PMS_P2;Temp;Humidity;BMP_temperature;BMP_pressure;BME280_temperature;BME280_humidity;BME280_pressure;Samples;Min_cycle;Max_cycle;Signal;HPM_P1;HPM_P2
2021/01/10 00:02:22;;;;;;;100.35;44.65;;;0.50;2201.60;;;;;;4844196;29;20576;-76
2021/01/10 00:04:48;;;;;;;88.43;45.25;;;0.50;2201.60;;;;;;4843612;29;20155;-76
2021/01/10 00:07:14;;;;;;;96.28;45.45;;;0.40;2201.60;;;;;;4843998;29;20113;-76
2021/01/10 00:09:40;;;;;;;102.50;46.08;;;0.40;2201.60;;;;;;4843061;29;20486;-76
2021/01/10 00:12:06;;;;;;;100.63;47.45;;;0.40;2201.60;;;;;;4842409;29;20033;-76
2021/01/10 00:14:32;;;;;;;98.45;48.45;;;0.30;2201.60;;;;;;4844382;29;20475;-76
2021/01/10 00:16:57;;;;;;;92.90;44.42;;;0.30;2201.60;;;;;;4843207;29;20041;-76
2021/01/10 00:19:23;;;;;;;107.38;49.88;;;0.40;2201.60;;;;;;4843930;29;20030;-77
2021/01/10 00:21:49;;;;;;;96.05;44.90;;;0.40;2201.60;;;;;;4842165;29;20390;-77
2021/01/10 00:24:14;;;;;;;100.53;46.80;;;0.40;2201.60;;;;;;4842799;29;20022;-77
2021/01/10 00:26:40;;;;;;;117.88;54.55;;;0.30;2201.60;;;;;;4842154;29;20053;-76
2021/01/10 00:29:07;;;;;;;114.18;55.00;;;0.40;2201.60;;;;;;4843929;29;20038;-76
2021/01/10 00:31:34;;;;;;;114.65;53.72;;;0.40;2201.60;;;;;;4842055;29;20367;-76
2021/01/10 00:34:00;;;;;;;119.05;55.05;;;0.40;2201.60;;;;;;4841519;29;20034;-76
2021/01/10 00:36:37;;;;;;;115.18;51.08;;;0.40;2201.60;;;;;;4843634;29;20458;-76
2021/01/10 00:39:04;;;;;;;105.70;53.55;;;0.40;2201.60;;;;;;4841650;29;20072;-76
2021/01/10 00:41:39;;;;;;;123.20;55.30;;;0.50;2201.60;;;;;;4843462;29;20034;-76
2021/01/10 00:44:06;;;;;;;111.03;52.85;;;0.50;2201.60;;;;;;4842721;29;20128;-76
2021/01/10 00:46:32;;;;;;;108.38;47.85;;;0.50;2201.60;;;;;;4841568;29;20050;-76
2021/01/10 00:48:58;;;;;;;117.10;52.75;;;0.60;2201.60;;;;;;4843166;29;20093;-76
2021/01/10 00:51:24;;;;;;;110.90;52.20;;;0.70;2201.60;;;;;;4841732;29;20041;-76
2021/01/10 00:53:50;;;;;;;90.30;48.20;;;0.60;2201.60;;;;;;4843304;29;20401;-76
2021/01/10 00:56:16;;;;;;;105.75;49.67;;;0.60;2201.60;;;;;;4841084;29;20042;-76
2021/01/10 00:58:41;;;;;;;111.00;52.42;;;0.50;2201.60;;;;;;4841732;29;20043;-77
2021/01/10 01:01:07;;;;;;;103.97;50.42;;;0.50;2201.60;;;;;;4841489;29;20379;-75
2021/01/10 01:03:33;;;;;;;102.80;51.85;;;0.60;2201.60;;;;;;4841698;29;20037;-77
2021/01/10 01:05:59;;;;;;;108.20;52.83;;;0.50;2201.60;;;;;;4841126;29;20075;-76
2021/01/10 01:08:24;;;;;;;120.80;59.00;;;0.60;2201.60;;;;;;4843452;29;20022;-76
2021/01/10 01:10:50;;;;;;;124.05;60.38;;;0.60;2201.60;;;;;;4841696;29;20555;-76
2021/01/10 01:13:17;;;;;;;105.38;56.50;;;0.70;2201.60;;;;;;4842242;29;20061;-76
2021/01/10 01:15:42;;;;;;;111.45;54.03;;;25.60;2201.60;;;;;;4841924;29;20035;-76
2021/01/10 01:18:09;;;;;;;117.63;55.45;;;0.80;2201.60;;;;;;4842675;29;20045;-76
2021/01/10 01:20:35;;;;;;;106.05;51.45;;;0.80;2201.60;;;;;;4843075;29;20098;-76
2021/01/10 01:23:03;;;;;;;105.03;52.45;;;0.70;2201.60;;;;;;4842718;29;20030;-76
2021/01/10 01:25:29;;;;;;;114.75;52.85;;;0.60;2201.60;;;;;;4841727;29;20113;-76
2021/01/10 01:27:55;;;;;;;94.18;46.70;;;0.70;2201.60;;;;;;4841493;29;20105;-76
2021/01/10 01:30:20;;;;;;;95.32;49.30;;;0.60;2201.60;;;;;;4841505;29;20034;-76
2021/01/10 01:32:46;;;;;;;98.70;46.90;;;0.60;2201.60;;;;;;4841548;29;20026;-76
2021/01/10 01:35:12;;;;;;;100.75;46.70;;;0.60;2201.60;;;;;;4841524;29;20125;-76
2021/01/10 01:37:38;;;;;;;92.63;46.75;;;0.60;2201.60;;;;;;4842418;29;20888;-76
2021/01/10 01:40:09;;;;;;;88.43;43.83;;;0.70;2201.60;;;;;;4842266;29;20054;-75
2021/01/10 01:42:36;;;;;;;86.00;42.83;;;0.60;2201.60;;;;;;4841084;29;20037;-76
2021/01/10 01:45:07;;;;;;;79.97;41.80;;;0.60;2201.60;;;;;;4840740;29;20094;-76
2021/01/10 01:47:34;;;;;;;88.35;44.30;;;0.60;2201.60;;;;;;4841705;29;20563;-76
2021/01/10 01:50:05;;;;;;;92.22;42.42;;;0.60;2201.60;;;;;;4842156;29;20061;-76
2021/01/10 01:52:31;;;;;;;78.25;39.60;;;0.70;2201.60;;;;;;4842652;29;20026;-76
2021/01/10 01:54:57;;;;;;;84.85;42.13;;;0.80;2201.60;;;;;;4840443;29;21142;-76
2021/01/10 01:57:22;;;;;;;78.85;38.60;;;0.80;2201.60;;;;;;4841528;29;20074;-76
2021/01/10 01:59:48;;;;;;;67.22;34.97;;;0.70;2201.60;;;;;;4841166;29;20022;-76
2021/01/10 02:02:14;;;;;;;77.53;38.00;;;0.70;2201.60;;;;;;4840888;29;20110;-76
2021/01/10 02:04:49;;;;;;;75.97;38.92;;;0.60;2201.60;;;;;;4841485;29;20070;-76
2021/01/10 02:07:28;;;;;;;80.88;39.75;;;0.60;2201.60;;;;;;4840986;29;20033;-76
2021/01/10 02:09:56;;;;;;;82.47;43.05;;;0.60;2201.60;;;;;;4840913;29;20081;-76
2021/01/10 02:12:23;;;;;;;82.00;41.10;;;0.70;2201.60;;;;;;4840117;29;20049;-75
2021/01/10 02:15:09;;;;;;;78.57;40.58;;;0.70;2201.60;;;;;;4840773;29;20037;-76
2021/01/10 02:17:35;;;;;;;85.60;43.20;;;0.60;2201.60;;;;;;4840715;29;20701;-75
2021/01/10 02:20:09;;;;;;;77.43;38.67;;;0.60;2201.60;;;;;;4841290;29;20027;-75
2021/01/10 02:22:50;;;;;;;85.03;43.35;;;0.60;2201.60;;;;;;4841674;29;20053;-75
2021/01/10 02:25:16;;;;;;;100.88;41.50;;;0.60;2201.60;;;;;;4840685;29;20030;-75
2021/01/10 02:27:44;;;;;;;80.75;42.45;;;0.70;2201.60;;;;;;4840255;29;20025;-75
2021/01/10 02:30:11;;;;;;;88.88;43.88;;;0.70;2201.60;;;;;;4841822;29;20052;-75
2021/01/10 02:32:40;;;;;;;80.28;40.85;;;0.70;2201.60;;;;;;4839452;29;20038;-75
2021/01/10 02:35:08;;;;;;;84.55;42.83;;;0.70;2201.60;;;;;;4841702;29;20034;-75
2021/01/10 02:37:48;;;;;;;86.22;42.05;;;0.80;2201.60;;;;;;4839375;29;20091;-75
2021/01/10 02:40:33;;;;;;;76.75;40.40;;;0.80;2201.60;;;;;;4841089;29;20041;-75
2021/01/10 02:43:18;;;;;;;86.53;41.75;;;0.80;2201.60;;;;;;4839674;29;20038;-74
2021/01/10 02:45:47;;;;;;;84.60;41.63;;;0.80;2201.60;;;;;;4840058;29;20064;-75
2021/01/10 02:48:13;;;;;;;77.18;41.45;;;0.80;2201.60;;;;;;4840773;29;20465;-75
2021/01/10 02:50:39;;;;;;;79.80;40.33;;;0.80;2201.60;;;;;;4840555;29;20026;-75
2021/01/10 02:53:05;;;;;;;75.28;40.75;;;0.80;2201.60;;;;;;4840968;29;20104;-75
2021/01/10 02:55:30;;;;;;;71.47;39.20;;;0.70;2201.60;;;;;;4841699;29;20137;-75
2021/01/10 02:58:01;;;;;;;70.93;39.53;;;0.70;2201.60;;;;;;4840665;29;20534;-75
2021/01/10 03:00:29;;;;;;;74.85;38.90;;;0.70;2201.60;;;;;;4839084;29;20049;-75
2021/01/10 03:02:55;;;;;;;76.45;39.70;;;0.90;2201.60;;;;;;4840002;29;20030;-75
2021/01/10 03:05:22;;;;;;;76.75;40.97;;;0.90;2201.60;;;;;;4838938;29;20038;-75
2021/01/10 03:07:48;;;;;;;68.88;40.30;;;0.90;2201.60;;;;;;4841548;29;20067;-75
2021/01/10 03:10:14;;;;;;;66.45;37.10;;;0.90;2201.60;;;;;;4840148;29;20086;-75
2021/01/10 03:12:41;;;;;;;66.85;35.85;;;25.60;2201.60;;;;;;4839784;29;20034;-76
2021/01/10 03:15:09;;;;;;;72.25;39.13;;;0.90;2201.60;;;;;;4841182;29;20071;-76
2021/01/10 03:17:45;;;;;;;64.38;36.92;;;0.90;2201.60;;;;;;4840216;29;20069;-76
2021/01/10 03:20:19;;;;;;;67.20;36.08;;;0.90;2201.60;;;;;;4842097;29;20029;-77
2021/01/10 03:22:45;;;;;;;63.80;32.75;;;0.90;2201.60;;;;;;4841643;29;20080;-76
2021/01/10 03:25:14;;;;;;;64.75;36.17;;;0.80;2201.60;;;;;;4841160;29;20844;-76
2021/01/10 03:27:40;;;;;;;69.30;38.17;;;0.70;2201.60;;;;;;4841367;29;20034;-77
2021/01/10 03:30:07;;;;;;;65.90;36.88;;;0.80;2201.60;;;;;;4840762;29;20055;-76
2021/01/10 03:32:33;;;;;;;64.32;37.38;;;0.80;2201.60;;;;;;4840281;29;20030;-76
2021/01/10 03:34:59;;;;;;;68.22;37.50;;;0.80;2201.60;;;;;;4841793;29;20026;-76
2021/01/10 03:37:25;;;;;;;73.97;41.15;;;0.80;2201.60;;;;;;4839671;29;20534;-75
2021/01/10 03:39:50;;;;;;;68.75;39.92;;;0.80;2201.60;;;;;;4840616;29;20023;-75
2021/01/10 03:42:16;;;;;;;67.20;39.15;;;0.80;2201.60;;;;;;4840022;29;20026;-75
2021/01/10 03:44:42;;;;;;;73.70;38.78;;;0.80;2201.60;;;;;;4835649;29;20137;-75
2021/01/10 03:47:08;;;;;;;77.65;41.50;;;0.80;2201.60;;;;;;4823001;29;20039;-75
2021/01/10 03:49:33;;;;;;;72.72;40.67;;;0.80;2201.60;;;;;;4822760;29;20045;-76
2021/01/10 03:51:59;;;;;;;72.72;40.30;;;0.90;2201.60;;;;;;4822108;29;20042;-75
2021/01/10 03:54:25;;;;;;;77.72;40.75;;;0.90;2201.60;;;;;;4822797;29;20034;-77
2021/01/10 03:56:50;;;;;;;67.70;37.72;;;0.90;2201.60;;;;;;4823584;29;20094;-75
2021/01/10 03:59:16;;;;;;;77.07;39.72;;;0.90;2201.60;;;;;;4822905;29;20035;-75
2021/01/10 04:01:42;;;;;;;75.05;38.85;;;0.90;2201.60;;;;;;4822198;29;20041;-75
2021/01/10 04:04:07;;;;;;;68.53;37.88;;;0.90;2201.60;;;;;;4825069;29;20030;-76
2021/01/10 04:06:33;;;;;;;75.82;41.33;;;0.90;2201.60;;;;;;4825410;29;20039;-75
2021/01/10 04:08:59;;;;;;;74.85;41.08;;;0.90;2201.60;;;;;;4826297;29;20545;-75
2021/01/10 04:11:25;;;;;;;71.55;40.05;;;0.80;2201.60;;;;;;4823881;29;20035;-76
2021/01/10 04:13:51;;;;;;;77.80;40.30;;;0.90;2201.60;;;;;;4824618;29;20042;-75
2021/01/10 04:16:17;;;;;;;70.95;39.03;;;0.90;2201.60;;;;;;4823725;29;20542;-75
2021/01/10 04:18:43;;;;;;;81.32;44.33;;;0.80;2201.60;;;;;;4824518;29;20119;-77
2021/01/10 04:21:08;;;;;;;75.28;41.25;;;0.80;2201.60;;;;;;4823792;29;20030;-77
2021/01/10 04:23:35;;;;;;;76.20;39.33;;;0.80;2201.60;;;;;;4825560;29;20018;-77
2021/01/10 04:26:01;;;;;;;79.63;43.42;;;0.80;2201.60;;;;;;4824956;29;20813;-77
2021/01/10 04:28:26;;;;;;;78.18;40.83;;;0.70;2201.60;;;;;;4824928;29;20043;-77
2021/01/10 04:30:52;;;;;;;84.47;42.90;;;0.70;2201.60;;;;;;4824142;29;20034;-76
2021/01/10 04:33:18;;;;;;;77.03;42.92;;;0.70;2201.60;;;;;;4825049;29;20058;-77
2021/01/10 04:35:44;;;;;;;82.80;45.05;;;0.70;2201.60;;;;;;4824214;29;20030;-77
2021/01/10 04:38:09;;;;;;;87.40;46.55;;;0.60;2201.60;;;;;;4823876;29;20031;-76
2021/01/10 04:40:35;;;;;;;78.80;45.20;;;0.60;2201.60;;;;;;4824067;29;20046;-76
2021/01/10 04:43:01;;;;;;;84.93;46.03;;;0.60;2201.60;;;;;;4824859;29;20440;-76
2021/01/10 04:45:27;;;;;;;82.72;44.78;;;0.60;2201.60;;;;;;4823780;29;20065;-76
2021/01/10 04:47:53;;;;;;;80.57;46.33;;;0.60;2201.60;;;;;;4823754;29;20491;-76
2021/01/10 04:50:21;;;;;;;90.10;45.92;;;0.60;2201.60;;;;;;4825345;29;20026;-76
2021/01/10 04:52:52;;;;;;;91.40;50.00;;;0.60;2201.60;;;;;;4824704;29;20065;-76
2021/01/10 04:55:19;;;;;;;83.85;45.20;;;0.60;2201.60;;;;;;4825347;29;20031;-76
2021/01/10 04:57:48;;;;;;;90.80;46.92;;;0.70;2201.60;;;;;;4823427;29;20108;-75
2021/01/10 05:00:14;;;;;;;76.32;46.17;;;0.60;2201.60;;;;;;4823269;29;20027;-75
2021/01/10 05:02:54;;;;;;;86.43;47.47;;;0.60;2201.60;;;;;;4824976;29;20512;-76
2021/01/10 05:05:22;;;;;;;85.47;45.47;;;0.70;2201.60;;;;;;4823673;29;20075;-76
2021/01/10 05:07:47;;;;;;;76.53;46.58;;;0.60;2201.60;;;;;;4823822;29;20026;-76
2021/01/10 05:10:13;;;;;;;81.13;44.40;;;0.60;2201.60;;;;;;4823317;29;20040;-77
2021/01/10 05:12:39;;;;;;;82.57;47.55;;;0.60;2201.60;;;;;;4823772;29;20035;-76
2021/01/10 05:15:06;;;;;;;81.75;48.25;;;0.60;2201.60;;;;;;4822956;29;20452;-76
2021/01/10 05:17:32;;;;;;;76.20;43.75;;;0.70;2201.60;;;;;;4822999;29;20057;-76
2021/01/10 05:19:58;;;;;;;78.60;45.55;;;0.70;2201.60;;;;;;4823494;29;20030;-75
2021/01/10 05:22:24;;;;;;;76.88;42.42;;;0.70;2201.60;;;;;;4824210;29;20390;-75
2021/01/10 05:24:50;;;;;;;73.82;42.30;;;0.70;2201.60;;;;;;4822947;29;20034;-76
2021/01/10 05:27:16;;;;;;;75.10;42.42;;;0.80;2201.60;;;;;;4822667;29;20133;-75
2021/01/10 05:29:43;;;;;;;76.57;44.50;;;0.80;2201.60;;;;;;4823077;29;20057;-75
2021/01/10 05:32:10;;;;;;;68.53;38.85;;;0.70;2201.60;;;;;;4824250;29;20029;-76
2021/01/10 05:34:35;;;;;;;73.65;40.83;;;0.70;2201.60;;;;;;4824466;29;20041;-76
2021/01/10 05:37:16;;;;;;;69.78;41.47;;;0.60;2201.60;;;;;;4824062;29;20034;-76
2021/01/10 05:39:45;;;;;;;78.50;42.22;;;0.70;2201.60;;;;;;4823982;29;20026;-76
2021/01/10 05:42:13;;;;;;;68.35;40.42;;;0.70;2201.60;;;;;;4823066;29;20052;-76
2021/01/10 05:44:39;;;;;;;67.50;40.40;;;0.60;2201.60;;;;;;4823859;29;20402;-76
2021/01/10 05:47:13;;;;;;;69.95;40.40;;;0.70;2201.60;;;;;;4824593;29;20109;-76
2021/01/10 05:49:46;;;;;;;64.30;37.08;;;0.70;2201.60;;;;;;4823864;29;20037;-76
2021/01/10 05:52:14;;;;;;;78.88;40.40;;;0.70;2201.60;;;;;;4823541;29;20060;-76
2021/01/10 05:54:48;;;;;;;70.95;40.25;;;0.70;2201.60;;;;;;4824197;29;20050;-76
2021/01/10 05:57:15;;;;;;;72.30;41.15;;;0.70;2201.60;;;;;;4823597;29;20034;-75
2021/01/10 05:59:49;;;;;;;72.28;41.05;;;0.70;2201.60;;;;;;4824144;29;20057;-76
2021/01/10 06:02:28;;;;;;;77.75;40.83;;;0.70;2201.60;;;;;;4823706;29;20037;-75
2021/01/10 06:05:13;;;;;;;76.22;40.75;;;0.80;2201.60;;;;;;4823618;29;20037;-76
2021/01/10 06:07:40;;;;;;;72.03;42.08;;;0.80;2201.60;;;;;;4822740;29;20043;-75
2021/01/10 06:10:07;;;;;;;73.18;40.97;;;0.80;2201.60;;;;;;4822438;29;20033;-76
2021/01/10 06:12:33;;;;;;;69.72;39.63;;;0.70;2201.60;;;;;;4822197;29;20390;-76
2021/01/10 06:15:15;;;;;;;77.85;42.10;;;0.80;2201.60;;;;;;4822711;29;20046;-76
2021/01/10 06:17:46;;;;;;;78.07;43.50;;;0.80;2201.60;;;;;;4822170;29;20486;-76
2021/01/10 06:20:27;;;;;;;77.32;44.47;;;0.70;2201.60;;;;;;4823746;29;20110;-76
2021/01/10 06:22:55;;;;;;;74.00;41.08;;;0.80;2201.60;;;;;;4822885;29;20034;-76
2021/01/10 06:25:29;;;;;;;85.55;45.72;;;0.70;2201.60;;;;;;4823204;29;20037;-76
2021/01/10 06:28:15;;;;;;;81.97;43.70;;;0.80;2201.60;;;;;;4823984;29;20479;-76
2021/01/10 06:31:02;;;;;;;78.15;42.40;;;0.80;2201.60;;;;;;4823675;29;20046;-76
2021/01/10 06:33:30;;;;;;;;;;;0.70;2201.60;;;;;;4823194;29;20129;-76
2021/01/10 06:36:00;;;;;;;77.03;41.17;;;0.70;2201.60;;;;;;4822363;29;19909;-75
2021/01/10 06:38:32;;;;;;;80.43;42.10;;;0.70;2201.60;;;;;;4821569;29;20491;-75
2021/01/10 06:41:33;;;;;;;80.78;45.03;;;0.70;2201.60;;;;;;4823070;29;20053;-75
2021/01/10 06:44:01;;;;;;;87.20;45.78;;;0.70;2201.60;;;;;;4821931;29;20477;-76
2021/01/10 06:46:26;;;;;;;82.97;46.88;;;0.80;2201.60;;;;;;4823614;29;20026;-76
2021/01/10 06:48:53;;;;;;;89.82;48.38;;;0.80;2201.60;;;;;;4821507;29;20368;-76
2021/01/10 06:51:22;;;;;;;91.63;49.33;;;0.70;2201.60;;;;;;4822111;29;20402;-75
2021/01/10 06:53:49;;;;;;;85.13;46.47;;;0.80;2201.60;;;;;;4821659;29;20034;-75
2021/01/10 06:56:15;;;;;;;89.25;47.40;;;0.80;2201.60;;;;;;4822080;29;20031;-76
2021/01/10 06:59:07;;;;;;;90.22;52.05;;;0.80;2201.60;;;;;;4821502;29;20022;-76
2021/01/10 07:01:48;;;;;;;94.80;47.03;;;0.80;2201.60;;;;;;4822361;29;20034;-75
2021/01/10 07:04:32;;;;;;;93.50;53.22;;;0.80;2201.60;;;;;;4821398;29;20057;-76
2021/01/10 07:06:58;;;;;;;98.05;50.70;;;0.80;2201.60;;;;;;4822210;29;20038;-76
2021/01/10 07:09:24;;;;;;;89.38;51.03;;;0.80;2201.60;;;;;;4823013;29;20417;-76
2021/01/10 07:11:50;;;;;;;92.20;51.58;;;0.80;2201.60;;;;;;4821939;29;20031;-75
2021/01/10 07:14:22;;;;;;;85.55;50.90;;;0.80;2201.60;;;;;;4821276;29;20049;-76
2021/01/10 07:16:49;;;;;;;92.63;48.42;;;0.80;2201.60;;;;;;4823400;29;20042;-76
2021/01/10 07:19:18;;;;;;;82.50;46.03;;;0.90;2201.60;;;;;;4823083;29;20034;-76
2021/01/10 07:21:46;;;;;;;88.60;48.85;;;0.90;2201.60;;;;;;4822158;29;20053;-76
2021/01/10 07:26:49;;;;;;;83.65;48.88;;;25.60;2201.60;;;;;;4822852;29;20045;-75
2021/01/10 07:29:46;;;;;;;85.53;44.20;;;25.60;2201.60;;;;;;4823261;29;20034;-75
2021/01/10 07:32:21;;;;;;;81.28;43.97;;;25.60;2201.60;;;;;;4821726;29;20035;-75
2021/01/10 07:34:47;;;;;;;83.65;45.40;;;0.90;2201.60;;;;;;4821070;29;20042;-75
2021/01/10 07:37:15;;;;;;;89.88;48.78;;;25.60;2201.60;;;;;;4823753;29;20040;-75
2021/01/10 07:40:08;;;;;;;80.70;46.28;;;25.60;2201.60;;;;;;4834792;29;20038;-76
2021/01/10 07:42:38;;;;;;;77.97;43.95;;;0.90;2201.60;;;;;;4838737;29;20023;-76
2021/01/10 07:45:23;;;;;;;81.25;43.20;;;0.90;2201.60;;;;;;4824956;29;20042;-76
2021/01/10 07:47:50;;;;;;;88.13;46.53;;;0.90;2201.60;;;;;;4825750;29;20039;-76
2021/01/10 07:50:15;;;;;;;91.57;48.63;;;0.90;2201.60;;;;;;4824482;29;20035;-76
2021/01/10 07:52:41;;;;;;;83.35;46.33;;;25.60;2201.60;;;;;;4831459;29;20029;-76
2021/01/10 07:55:19;;;;;;;89.70;47.25;;;25.80;2201.60;;;;;;4844382;29;20436;-76
2021/01/10 07:57:54;;;;;;;78.60;45.97;;;26.00;2201.60;;;;;;4844615;29;20034;-76
2021/01/10 08:00:24;;;;;;;89.73;48.77;;;26.10;2201.60;;;;;;4844361;29;20264;-77
2021/01/10 08:03:06;;;;;;;74.80;41.20;;;26.20;2201.60;;;;;;4844522;29;20113;-77
2021/01/10 08:05:36;;;;;;;74.25;45.25;;;26.30;2201.60;;;;;;4843558;29;20028;-77
2021/01/10 08:08:05;;;;;;;72.78;43.30;;;26.40;2201.60;;;;;;4844400;29;20026;-77
2021/01/10 08:10:49;;;;;;;74.53;43.95;;;26.50;2201.60;;;;;;4843485;29;20036;-76
2021/01/10 08:13:39;;;;;;;74.22;44.65;;;26.40;2201.60;;;;;;4843027;29;20502;-76
2021/01/10 08:16:07;;;;;;;78.88;46.00;;;26.30;2201.60;;;;;;4843153;29;20041;-76
2021/01/10 08:18:44;;;;;;;76.25;42.80;;;26.40;2201.60;;;;;;4842639;29;20502;-76
2021/01/10 08:21:12;;;;;;;75.13;42.17;;;26.30;2201.60;;;;;;4843152;29;20546;-76
2021/01/10 08:23:39;;;;;;;73.15;42.20;;;26.30;2201.60;;;;;;4842853;29;20397;-77
2021/01/10 08:26:08;;;;;;;83.78;41.97;;;26.30;2201.60;;;;;;4843123;29;20033;-76
2021/01/10 08:28:36;;;;;;;81.53;44.13;;;26.20;2201.60;;;;;;4844286;29;20075;-76
2021/01/10 08:31:04;;;;;;;72.50;42.42;;;26.30;2201.60;;;;;;4844748;29;20030;-77
2021/01/10 08:33:31;;;;;;;78.53;43.58;;;26.20;2201.60;;;;;;4844245;29;20037;-77
2021/01/10 08:36:27;;;;;;;77.75;43.25;;;26.20;2201.60;;;;;;4842909;29;20030;-76
2021/01/10 08:39:02;;;;;;;74.95;39.67;;;26.20;2201.60;;;;;;4843024;29;20171;-77
2021/01/10 08:41:27;;;;;;;78.93;45.20;;;26.20;2201.60;;;;;;4844673;29;20517;-77
2021/01/10 08:43:56;;;;;;;76.32;42.42;;;26.20;2201.60;;;;;;4843833;29;20068;-76
2021/01/10 08:46:26;;;;;;;80.47;45.17;;;26.20;2201.60;;;;;;4842533;29;20413;-76
2021/01/10 08:48:52;;;;;;;74.80;42.92;;;26.30;2201.60;;;;;;4842792;29;20037;-76
2021/01/10 08:51:50;;;;;;;75.55;42.47;;;26.20;2201.60;;;;;;4843302;29;20031;-76
2021/01/10 08:54:18;;;;;;;78.07;43.65;;;26.40;2201.60;;;;;;4792640;29;20400;-76
2021/01/10 08:56:49;;;;;;;71.00;41.63;;;26.50;2201.60;;;;;;4801324;29;20055;-75
2021/01/10 08:59:14;;;;;;;91.35;49.97;;;26.50;2201.60;;;;;;4800398;29;20505;-75
2021/01/10 09:01:40;;;;;;;90.57;45.25;;;51.20;2227.20;;;;;;4798342;29;20030;-76
2021/01/10 09:04:07;;;;;;;85.72;47.95;;;51.20;2227.20;;;;;;4819984;29;20039;-76
2021/01/10 09:06:47;;;;;;;75.57;44.15;;;51.20;2227.20;;;;;;4808509;29;20125;-76
2021/01/10 09:09:36;;;;;;;79.85;45.13;;;51.20;2227.20;;;;;;4823370;29;20041;-76
2021/01/10 09:12:31;;;;;;;71.50;40.55;;;51.30;2227.20;;;;;;4787971;30;20124;-76
2021/01/10 09:15:01;;;;;;;74.20;39.17;;;51.40;2227.20;;;;;;4789129;29;20510;-76
2021/01/10 09:17:36;;;;;;;84.05;43.85;;;51.40;2227.20;;;;;;4787938;30;20415;-76
2021/01/10 09:20:11;;;;;;;73.67;39.57;;;51.40;2227.20;;;;;;4786667;29;20031;-76
2021/01/10 09:22:37;;;;;;;76.60;45.20;;;51.40;2227.20;;;;;;4771428;30;20267;-77
2021/01/10 09:25:11;;;;;;;73.85;43.10;;;51.40;2227.20;;;;;;4808565;29;20027;-76
2021/01/10 09:27:37;;;;;;;75.05;40.10;;;51.40;2227.20;;;;;;4822614;29;20034;-77
2021/01/10 09:30:05;;;;;;;80.13;45.15;;;51.20;2227.20;;;;;;4815205;29;20400;-76
2021/01/10 09:32:31;;;;;;;69.32;39.80;;;51.20;2227.20;;;;;;4823139;29;20148;-77
2021/01/10 09:34:58;;;;;;;75.47;43.15;;;26.50;2201.60;;;;;;4823399;29;20038;-77
2021/01/10 09:37:31;;;;;;;75.10;40.72;;;26.40;2201.60;;;;;;4831140;29;20034;-76
2021/01/10 09:40:11;;;;;;;69.20;38.45;;;26.30;2201.60;;;;;;4840539;29;20038;-77
2021/01/10 09:42:42;;;;;;;70.40;39.80;;;26.30;2201.60;;;;;;4842094;29;20114;-77
2021/01/10 09:45:08;;;;;;;73.28;39.05;;;26.20;2201.60;;;;;;4842046;29;20045;-77
2021/01/10 09:47:35;;;;;;;78.40;43.33;;;26.20;2201.60;;;;;;4842499;29;20034;-76
2021/01/10 09:50:13;;;;;;;85.80;46.45;;;26.30;2201.60;;;;;;4840869;29;20367;-76
2021/01/10 09:52:49;;;;;;;86.13;49.40;;;26.30;2201.60;;;;;;4842548;29;20110;-76
2021/01/10 09:55:16;;;;;;;84.47;40.47;;;26.50;2201.60;;;;;;4841760;29;20450;-77
2021/01/10 09:57:42;;;;;;;73.60;44.30;;;26.50;2201.60;;;;;;4841033;29;20038;-77
2021/01/10 10:00:13;;;;;;;90.30;53.00;;;26.40;2201.60;;;;;;4842135;29;20397;-77
2021/01/10 10:02:39;;;;;;;85.55;50.10;;;51.20;2227.20;;;;;;4841933;29;20026;-76
2021/01/10 10:05:20;;;;;;;85.88;47.80;;;51.20;2227.20;;;;;;4840917;29;20066;-77
2021/01/10 10:07:50;;;;;;;78.82;42.92;;;51.30;2227.20;;;;;;4841019;29;20030;-77
2021/01/10 10:10:21;;;;;;;65.55;37.80;;;51.20;2227.20;;;;;;4841248;29;20439;-77
2021/01/10 10:13:00;;;;;;;76.05;41.65;;;51.20;2227.20;;;;;;4840352;29;20048;-77
2021/01/10 10:15:45;;;;;;;79.68;42.75;;;26.50;2201.60;;;;;;4840463;29;20497;-77
2021/01/10 10:18:23;;;;;;;78.28;45.10;;;51.30;2227.20;;;;;;4840292;29;20064;-77
2021/01/10 10:20:50;;;;;;;88.80;43.75;;;51.30;2227.20;;;;;;4840765;29;20041;-76
2021/01/10 10:23:16;;;;;;;86.82;50.13;;;51.40;2227.20;;;;;;4839964;29;20410;-76
2021/01/10 10:25:43;;;;;;;85.18;44.08;;;51.40;2227.20;;;;;;4840738;29;20110;-76
2021/01/10 10:28:09;;;;;;;100.50;56.13;;;51.40;2227.20;;;;;;4840346;29;20041;-76
2021/01/10 10:30:35;;;;;;;92.72;54.95;;;51.30;2227.20;;;;;;4842096;29;20029;-76
2021/01/10 10:33:02;;;;;;;112.25;61.22;;;51.40;2227.20;;;;;;4839848;29;20098;-76
2021/01/10 10:35:27;;;;;;;109.88;57.17;;;51.40;2227.20;;;;;;4840312;29;20049;-76
2021/01/10 10:37:53;;;;;;;98.63;55.08;;;51.40;2227.20;;;;;;4841766;29;20030;-76
2021/01/10 10:40:20;;;;;;;113.32;59.45;;;51.40;2227.20;;;;;;4840106;29;20050;-77
2021/01/10 10:42:47;;;;;;;115.53;60.15;;;51.40;2227.20;;;;;;4840723;29;20037;-77
2021/01/10 10:45:13;;;;;;;96.43;52.13;;;51.40;2227.20;;;;;;4841453;29;20405;-76
2021/01/10 10:47:39;;;;;;;102.00;56.47;;;51.50;2227.20;;;;;;4842108;29;20038;-77
2021/01/10 10:50:06;;;;;;;105.57;55.53;;;51.30;2227.20;;;;;;4840630;29;20037;-77
2021/01/10 10:52:32;;;;;;;91.80;51.65;;;51.40;2227.20;;;;;;4840693;29;20474;-77
2021/01/10 10:54:58;;;;;;;90.70;51.55;;;51.40;2227.20;;;;;;4839737;29;20038;-77
2021/01/10 10:57:24;;;;;;;96.32;52.00;;;51.50;2227.20;;;;;;4841622;29;20048;-78
2021/01/10 10:59:50;;;;;;;82.85;47.97;;;51.60;2227.20;;;;;;4839627;29;20113;-78
2021/01/10 11:02:15;;;;;;;92.72;52.15;;;51.50;2227.20;;;;;;4840656;29;20034;-78
2021/01/10 11:04:44;;;;;;;86.53;48.50;;;51.60;2227.20;;;;;;4841715;29;20052;-78
2021/01/10 11:07:10;;;;;;;90.57;51.03;;;51.70;2227.20;;;;;;4840130;29;20033;-78
2021/01/10 11:09:36;;;;;;;81.78;41.80;;;51.70;2227.20;;;;;;4840064;29;20474;-77
2021/01/10 11:12:03;;;;;;;81.53;45.60;;;51.60;2227.20;;;;;;4838807;29;20090;-77
2021/01/10 11:14:29;;;;;;;95.45;52.17;;;51.60;2227.20;;;;;;4840311;29;20085;-77
2021/01/10 11:16:54;;;;;;;108.53;59.42;;;51.50;2227.20;;;;;;4840933;29;20759;-78
2021/01/10 11:19:21;;;;;;;97.30;54.03;;;51.60;2227.20;;;;;;4840201;29;20087;-76
2021/01/10 11:21:49;;;;;;;80.18;42.78;;;51.60;2227.20;;;;;;4839630;29;20069;-77
2021/01/10 11:24:15;;;;;;;72.78;39.38;;;51.60;2227.20;;;;;;4840192;29;20030;-76
2021/01/10 11:26:43;;;;;;;79.63;42.35;;;51.50;2227.20;;;;;;4840520;29;20030;-77
2021/01/10 11:29:09;;;;;;;90.57;48.55;;;51.50;2227.20;;;;;;4839733;29;20029;-76
2021/01/10 11:31:36;;;;;;;63.28;35.15;;;51.60;2227.20;;;;;;4841435;29;20037;-76
2021/01/10 11:34:10;;;;;;;62.50;32.00;;;51.40;2227.20;;;;;;4839533;29;20030;-77
2021/01/10 11:36:40;;;;;;;63.92;36.28;;;51.40;2227.20;;;;;;4822142;29;20113;-77
2021/01/10 11:39:06;;;;;;;67.45;36.88;;;51.40;2227.20;;;;;;4821596;29;20121;-77
2021/01/10 11:41:31;;;;;;;64.80;35.90;;;51.40;2227.20;;;;;;4833976;29;20058;-76
2021/01/10 11:43:57;;;;;;;70.95;38.72;;;51.40;2227.20;;;;;;4839056;29;20061;-77
2021/01/10 11:46:23;;;;;;;77.95;39.55;;;51.40;2227.20;;;;;;4839667;29;20102;-77
2021/01/10 11:48:50;;;;;;;65.75;34.95;;;51.50;2227.20;;;;;;4841436;29;20060;-77
2021/01/10 11:51:17;;;;;;;73.40;36.15;;;51.50;2227.20;;;;;;4839253;29;20109;-77
2021/01/10 11:53:43;;;;;;;66.55;38.53;;;51.60;2227.20;;;;;;4839858;29;20106;-77
2021/01/10 11:56:09;;;;;;;73.00;41.88;;;51.70;2227.20;;;;;;4839046;29;20083;-77
2021/01/10 11:58:38;;;;;;;63.53;34.80;;;51.70;2227.20;;;;;;4839895;29;20522;-76
2021/01/10 12:01:03;;;;;;;77.25;43.05;;;51.70;2227.20;;;;;;4840369;29;20034;-77
2021/01/10 12:03:29;;;;;;;87.38;45.38;;;51.70;2227.20;;;;;;4839576;29;20045;-78
2021/01/10 12:05:55;;;;;;;88.75;49.75;;;51.70;2227.20;;;;;;4839399;29;20812;-77
2021/01/10 12:08:22;;;;;;;85.25;45.20;;;51.80;2227.20;;;;;;4840702;29;20066;-78
2021/01/10 12:10:49;;;;;;;81.07;47.67;;;51.90;2227.20;;;;;;4838361;29;20490;-77
2021/01/10 12:13:15;;;;;;;81.53;44.60;;;51.90;2227.20;;;;;;4838945;29;20052;-78
2021/01/10 12:15:43;;;;;;;92.68;46.50;;;51.90;2227.20;;;;;;4839519;29;20041;-78
2021/01/10 12:18:09;;;;;;;84.43;46.28;;;52.00;2227.20;;;;;;4838996;29;20042;-77
2021/01/10 12:20:35;;;;;;;88.55;47.22;;;52.00;2227.20;;;;;;4839362;29;20093;-77
2021/01/10 12:23:02;;;;;;;75.70;41.45;;;52.10;2227.20;;;;;;4839730;29;20038;-77
2021/01/10 12:25:28;;;;;;;71.32;38.60;;;51.90;2227.20;;;;;;4842177;29;20121;-76
2021/01/10 12:27:54;;;;;;;77.93;41.80;;;51.90;2227.20;;;;;;4842442;29;20042;-75